createdAt,value
2023-03-22T00:05:26.370Z,6.96
2023-03-22T00:15:31.476Z,6.97
2023-03-22T00:25:35.478Z,6.95
2023-03-22T00:35:40.624Z,6.92
2023-03-22T00:45:44.784Z,6.95
2023-03-22T00:55:49.855Z,7.07
2023-03-22T01:05:56.279Z,7.32
2023-03-22T01:16:01.243Z,7.30
2023-03-22T01:26:06.017Z,7.39
2023-03-22T01:36:12.198Z,7.38
2023-03-22T01:46:15.830Z,7.55
2023-03-22T01:56:23.904Z,7.55
2023-03-22T02:06:29.877Z,7.61
2023-03-22T02:16:50.209Z,7.64
2023-03-22T02:27:19.788Z,7.67
2023-03-22T02:38:17.404Z,7.52
2023-03-22T02:48:29.872Z,7.60
2023-03-22T02:58:40.123Z,7.35
2023-03-22T03:08:47.700Z,7.22
2023-03-22T03:19:00.273Z,7.26
2023-03-22T03:29:13.069Z,6.87
2023-03-22T03:39:18.489Z,6.73
2023-03-22T03:49:27.045Z,6.70
2023-03-22T03:59:30.612Z,6.59
2023-03-22T04:09:37.594Z,6.45
2023-03-22T04:19:42.131Z,6.27
2023-03-22T04:29:50.713Z,6.18
2023-03-22T04:39:54.487Z,6.15
2023-03-22T04:49:59.362Z,6.03
2023-03-22T05:00:06.645Z,6.10
2023-03-22T05:10:12.150Z,5.97
2023-03-22T05:20:15.906Z,5.93
2023-03-22T05:30:21.462Z,5.94
2023-03-22T05:40:25.054Z,5.85
2023-03-22T05:50:30.147Z,5.62
2023-03-22T06:00:33.854Z,5.80
2023-03-22T06:10:39.245Z,6.14
2023-03-22T06:20:43.222Z,6.25
2023-03-22T06:30:48.335Z,6.69
2023-03-22T06:40:51.995Z,7.11
2023-03-22T06:50:56.948Z,7.66
2023-03-22T07:01:00.633Z,8.31
2023-03-22T07:11:06.960Z,8.74
2023-03-22T07:21:10.772Z,9.47
2023-03-22T07:31:17.468Z,9.92
2023-03-22T07:41:22.465Z,10.58
2023-03-22T07:51:27.600Z,11.66
2023-03-22T08:01:31.295Z,12.44
2023-03-22T08:11:36.722Z,12.44
2023-03-22T08:21:40.808Z,12.85
2023-03-22T08:31:46.950Z,12.97
2023-03-22T08:41:50.692Z,13.08
2023-03-22T08:51:57.555Z,13.98
2023-03-22T09:02:01.599Z,14.21
2023-03-22T09:12:07.455Z,14.41
2023-03-22T09:22:11.203Z,14.69
2023-03-22T09:32:16.309Z,14.67
2023-03-22T09:42:34.017Z,14.95
2023-03-22T09:52:39.126Z,15.34
2023-03-22T10:03:03.291Z,15.57
2023-03-22T10:13:19.745Z,15.65
2023-03-22T10:23:29.813Z,15.55
2023-03-22T10:33:43.010Z,15.35
2023-03-22T10:43:53.369Z,15.96
2023-03-22T10:54:01.596Z,16.31
2023-03-22T11:04:11.317Z,16.66
2023-03-22T11:14:21.085Z,15.86
2023-03-22T11:24:27.614Z,16.24
2023-03-22T11:34:35.169Z,16.03
2023-03-22T11:44:38.840Z,16.81
2023-03-22T11:54:45.981Z,17.19
2023-03-22T12:04:57.235Z,17.65
2023-03-22T12:15:06.501Z,17.27
2023-03-22T12:25:17.779Z,17.36
2023-03-22T12:35:28.296Z,18.10
2023-03-22T12:45:37.392Z,18.68
2023-03-22T12:55:43.835Z,18.72
2023-03-22T13:05:51.223Z,18.54
2023-03-22T13:16:03.266Z,18.19
2023-03-22T13:26:13.643Z,18.38
2023-03-22T13:36:26.307Z,18.13
2023-03-22T13:46:46.443Z,18.36
2023-03-22T13:56:56.872Z,18.20
2023-03-22T14:07:06.996Z,18.21
2023-03-22T14:17:23.196Z,18.26
